Weather at Gigha Airfield

Public forecast

Using degrees Celsius for public forecast. Weather courtesy of forecast.io.

Closest aviation weather report (METAR) to Gigha Airfield

Report is more than 6 hours old.

Closest report is Campbeltown Airport, 13.3 nm (24.6 km) S.

2022/11/14 15:20 (retrieved 2 years ago)

EGEC 141520Z 12006KT 9999 FEW010 10/09 Q1001

Closest aviation forecast (TAF) to Gigha Airfield

Forecast is more than 12 hours old.

Closest forecast is Glasgow Prestwick Airport, 40.7 nm (75.4 km) ESE.

2023/02/22 18:00 (retrieved 1 year ago)

TAF EGPK 221653Z 2218/2318 33010KT 9999 SCT040 BECMG 2301/2304 15004KT BECMG 2310/2313 27012KT